Time;durP1;ratioP1;P1;durP2;ratioP2;P2;SDS_P1;SDS_P2;PMS_P1;PMS_P2;Temp;Humidity;BMP_temperature;BMP_pressure;BME280_temperature;BME280_humidity;BME280_pressure;Samples;Min_cycle;Max_cycle;Signal;HPM_P1;HPM_P2
2022/09/08 09:00:07;;;;;;;0.50;0.50;;;;;;;-145.16;100.00;76027.17;645130;217;32378;-73
2022/09/08 09:03:32;;;;;;;0.65;0.65;;;;;;;-145.16;100.00;76144.91;635258;225;22671;-72
2022/09/08 09:18:39;;;;;;;0.40;0.40;;;;;;;-145.16;100.00;75958.75;645134;217;32340;-70
2022/09/08 09:42:34;;;;;;;0.68;0.68;;;;;;;-145.16;100.00;76381.42;651599;217;32372;-69
2022/09/08 09:57:37;;;;;;;0.60;0.60;;;;;;;-145.16;100.00;76150.95;640380;216;32567;-69
2022/09/08 10:03:30;;;;;;;1.60;1.50;;;;;;;-145.16;100.00;76100.64;645340;217;43208;-70
2022/09/08 10:12:34;;;;;;;0.62;0.62;;;;;;;-145.16;100.00;76107.68;653651;217;32329;-70
2022/09/08 10:18:53;;;;;;;0.80;0.80;;;;;;;-145.16;100.00;75861.13;645136;217;32400;-70
2022/09/08 10:27:48;;;;;;;0.50;0.50;;;;;;;-145.16;100.00;76182.15;653644;217;32294;-73
2022/09/08 10:42:32;;;;;;;0.52;0.52;;;;;;;-145.16;100.00;75785.66;645136;217;32319;-70
2022/09/08 10:48:37;;;;;;;0.47;0.47;;;;;;;-145.16;100.00;75934.59;641327;217;32578;-70
2022/09/08 11:15:27;;;;;;;0.60;0.60;;;;;;;-145.16;100.00;75919.50;653210;218;32438;-71
2022/09/08 11:47:56;;;;;;;0.82;0.82;;;;;;;-145.16;100.00;75959.75;653668;217;32305;-72
2022/09/08 12:41:48;;;;;;;0.45;0.45;;;;;;;-145.16;100.00;76224.42;644342;217;32524;-71
2022/09/08 12:53:48;;;;;;;1.00;0.62;;;;;;;-145.16;100.00;76052.33;645188;217;32341;-70
2022/09/08 12:59:30;;;;;;;1.20;1.10;;;;;;;-145.16;100.00;76060.38;645179;218;32340;-70
2022/09/08 13:05:13;;;;;;;1.00;0.90;;;;;;;-145.16;100.00;76008.05;653677;217;32353;-71
2022/09/08 13:10:53;;;;;;;0.90;0.90;;;;;;;-145.16;100.00;76000.00;645161;217;32423;-71
2022/09/08 13:16:49;;;;;;;0.50;0.50;;;;;;;-145.16;100.00;75961.77;645171;217;43326;-71
2022/09/08 13:22:32;;;;;;;0.40;0.40;;;;;;;-145.16;100.00;76002.02;644911;217;32360;-70
2022/09/08 13:28:15;;;;;;;0.43;0.43;;;;;;;-145.16;99.79;75930.56;645026;217;32334;-70
2022/09/08 13:33:58;;;;;;;0.90;0.90;;;;;;;-145.16;100.00;76061.39;653673;217;32302;-71
2022/09/08 13:39:47;;;;;;;1.00;0.80;;;;;;;-145.16;100.00;76019.13;653685;217;32312;-70
2022/09/08 13:45:36;;;;;;;0.50;0.50;;;;;;;-145.16;100.00;76116.73;645176;217;32415;-70
2022/09/08 13:51:20;;;;;;;0.40;0.40;;;;;;;-145.16;100.00;76184.16;644858;217;32367;-71
2022/09/08 13:57:41;;;;;;;0.40;0.40;;;;;;;-145.16;100.00;76195.23;645035;217;32317;-72
2022/09/08 14:03:24;;;;;;;0.50;0.50;;;;;;;-145.16;100.00;76196.23;645172;217;32682;-73
2022/09/08 14:09:05;;;;;;;0.40;0.40;;;;;;;-145.16;100.00;76166.05;653684;217;32355;-70
2022/09/08 14:14:48;;;;;;;0.40;0.40;;;;;;;-145.16;100.00;76222.41;645191;217;43349;-70
2022/09/08 14:20:38;;;;;;;0.50;0.50;;;;;;;-145.16;100.00;76329.09;645032;217;32334;-71
2022/09/08 14:26:22;;;;;;;0.43;0.43;;;;;;;-145.16;100.00;76275.75;645148;217;43352;-73
2022/09/08 14:32:02;;;;;;;0.50;0.50;;;;;;;-145.16;100.00;76224.42;653660;217;32377;-71
2022/09/08 14:37:44;;;;;;;0.30;0.30;;;;;;;-145.16;100.00;76097.62;645182;217;32367;-70
2022/09/08 14:43:28;;;;;;;0.47;0.47;;;;;;;-145.16;100.00;76125.80;645182;217;32351;-70
2022/09/08 14:49:10;;;;;;;4.30;1.12;;;;;;;-145.16;100.00;76201.27;643715;217;32370;-70
2022/09/08 14:54:56;;;;;;;0.65;0.65;;;;;;;-145.16;100.00;76204.30;653668;217;32291;-70
2022/09/08 15:00:38;;;;;;;1.20;0.40;;;;;;;-145.16;100.00;76209.33;645176;217;43058;-70
2022/09/08 15:06:25;;;;;;;0.37;0.37;;;;;;;-145.16;100.00;76186.18;651897;217;43205;-71
2022/09/08 15:12:07;;;;;;;2.00;1.30;;;;;;;-145.16;100.00;76213.34;653679;217;32414;-70
2022/09/08 15:17:49;;;;;;;0.40;0.40;;;;;;;-145.16;100.00;76178.13;645170;217;32364;-69
2022/09/08 15:23:34;;;;;;;1.00;1.00;;;;;;;-145.16;100.00;76187.19;645159;217;32318;-70
2022/09/08 15:29:22;;;;;;;0.32;0.32;;;;;;;-145.16;100.00;76266.69;645153;217;43381;-70
2022/09/08 15:35:03;;;;;;;0.30;0.30;;;;;;;-145.16;100.00;76295.88;645150;217;32390;-70
2022/09/08 15:40:47;;;;;;;0.50;0.50;;;;;;;-145.16;100.00;76328.08;653672;217;43079;-69
2022/09/08 15:46:30;;;;;;;0.30;0.30;;;;;;;-145.16;100.00;76316.00;648346;217;32321;-70
2022/09/08 15:52:14;;;;;;;0.80;0.80;;;;;;;-145.16;100.00;76382.42;653684;217;32682;-72
2022/09/08 15:57:55;;;;;;;0.50;0.50;;;;;;;-145.16;100.00;76354.25;645160;218;32377;-70
2022/09/08 16:03:43;;;;;;;0.52;0.43;;;;;;;-145.16;100.00;76357.27;645168;217;32381;-70
2022/09/08 16:09:25;;;;;;;0.28;0.28;;;;;;;-145.16;100.00;76351.23;653672;218;32353;-70
2022/09/08 16:15:07;;;;;;;0.40;0.40;;;;;;;-145.16;100.00;76362.30;644669;217;32352;-70
2022/09/08 16:20:48;;;;;;;0.30;0.30;;;;;;;-145.16;100.00;76286.81;645175;217;32382;-69
2022/09/08 16:26:30;;;;;;;0.20;0.20;;;;;;;-145.16;100.00;76396.52;645175;218;32332;-72
2022/09/08 16:32:15;;;;;;;0.60;0.60;;;;;;;-145.16;100.00;76366.33;645081;217;32350;-72
2022/09/08 16:37:57;;;;;;;0.37;0.37;;;;;;;-145.16;100.00;76344.18;653679;217;32359;-70
2022/09/08 16:43:39;;;;;;;0.40;0.40;;;;;;;-145.16;100.00;76354.25;645155;217;32645;-71
2022/09/08 16:49:21;;;;;;;0.30;0.30;;;;;;;-145.16;100.00;76346.20;645164;217;32424;-72
2022/09/08 16:55:05;;;;;;;0.20;0.20;;;;;;;-145.16;100.00;76396.52;645151;217;32401;-70
2022/09/08 17:00:50;;;;;;;0.30;0.30;;;;;;;-145.16;100.00;76419.66;645154;217;32389;-69
2022/09/08 17:06:30;;;;;;;0.20;0.20;;;;;;;-145.16;100.00;76450.86;644107;217;32354;-69
2022/09/08 17:12:16;;;;;;;0.25;0.25;;;;;;;-145.16;100.00;76495.15;645072;217;32409;-69
2022/09/08 17:17:58;;;;;;;0.30;0.30;;;;;;;-145.16;100.00;76519.30;645185;217;32366;-69
2022/09/08 17:23:40;;;;;;;0.30;0.30;;;;;;;-145.16;100.00;76500.18;645171;217;32399;-71
2022/09/08 17:29:21;;;;;;;0.20;0.20;;;;;;;-145.16;100.00;76510.25;645177;217;32336;-72
2022/09/08 17:35:02;;;;;;;0.30;0.30;;;;;;;-145.16;100.00;76520.31;653675;217;32363;-72
2022/09/08 17:40:45;;;;;;;0.30;0.30;;;;;;;-145.16;100.00;76514.27;645154;217;32360;-72
2022/09/08 17:46:27;;;;;;;0.30;0.30;;;;;;;-145.16;100.00;76554.53;645182;217;32313;-72
2022/09/08 17:52:08;;;;;;;0.30;0.30;;;;;;;-145.16;100.00;76586.73;645159;217;32418;-71
2022/09/08 17:57:53;;;;;;;0.30;0.30;;;;;;;-145.16;100.00;76602.84;645112;218;32387;-72
2022/09/08 18:03:35;;;;;;;0.90;0.70;;;;;;;-145.16;100.00;76635.05;645172;217;32360;-71
2022/09/08 18:09:19;;;;;;;0.20;0.20;;;;;;;-145.16;100.00;76681.34;645169;217;32701;-72
2022/09/08 18:15:02;;;;;;;0.60;0.60;;;;;;;-145.16;100.00;76684.37;645058;216;32386;-71
2022/09/08 18:20:44;;;;;;;0.20;0.20;;;;;;;-145.16;100.00;76693.42;653690;217;32362;-72
2022/09/08 18:26:25;;;;;;;0.45;0.45;;;;;;;-145.16;100.00;76716.58;645171;217;32430;-73
2022/09/08 18:32:19;;;;;;;0.20;0.20;;;;;;;-145.16;100.00;76767.91;645178;217;32620;-72
2022/09/08 18:38:03;;;;;;;0.20;0.20;;;;;;;-145.16;100.00;76808.17;645152;216;32443;-71
2022/09/08 18:43:44;;;;;;;0.20;0.20;;;;;;;-145.16;100.00;76790.05;645173;217;32374;-71
2022/09/08 18:49:30;;;;;;;0.30;0.30;;;;;;;-145.16;100.00;76827.30;645175;217;32388;-70
2022/09/08 18:55:16;;;;;;;0.20;0.20;;;;;;;-145.16;100.00;76860.52;645194;217;32387;-71
2022/09/08 19:00:58;;;;;;;0.60;0.60;;;;;;;-145.16;100.00;76843.40;647008;216;31732;-71
2022/09/08 19:06:39;;;;;;;0.20;0.20;;;;;;;-145.16;100.00;76847.42;645200;218;32317;-71
2022/09/08 19:12:24;;;;;;;0.70;0.40;;;;;;;-145.16;100.00;76897.76;653698;217;32586;-72
2022/09/08 19:18:09;;;;;;;0.20;0.20;;;;;;;-145.16;100.00;76924.94;645182;217;35295;-71
2022/09/08 19:23:49;;;;;;;0.20;0.20;;;;;;;-145.16;100.00;76924.94;645186;217;43105;-72
2022/09/08 19:29:44;;;;;;;0.15;0.15;;;;;;;-145.16;100.00;76921.91;645030;218;43066;-72
2022/09/08 19:35:27;;;;;;;0.10;0.10;;;;;;;-145.16;100.00;76845.41;653218;217;32345;-72
2022/09/08 19:41:09;;;;;;;0.20;0.20;;;;;;;-145.16;100.00;76854.47;645229;217;34309;-72
2022/09/08 19:46:51;;;;;;;0.10;0.10;;;;;;;-145.16;100.00;76901.78;645178;217;34287;-72
2022/09/08 19:52:42;;;;;;;0.20;0.20;;;;;;;-145.16;100.00;76894.73;645173;217;32400;-71
2022/09/08 19:58:51;;;;;;;0.60;0.60;;;;;;;-145.16;100.00;76872.59;645150;217;32658;-72
2022/09/08 20:04:33;;;;;;;0.20;0.20;;;;;;;-145.16;100.00;76864.54;645190;217;32379;-72
2022/09/08 20:10:16;;;;;;;0.20;0.20;;;;;;;-145.16;100.00;76889.70;653675;217;32341;-72
2022/09/08 20:16:03;;;;;;;0.20;0.20;;;;;;;-145.16;100.00;76914.87;645170;217;32383;-72
2022/09/08 20:21:51;;;;;;;0.10;0.10;;;;;;;-145.16;100.00;76920.91;653670;217;32361;-72
2022/09/08 20:28:11;;;;;;;0.20;0.20;;;;;;;-145.16;100.00;76956.14;645182;218;32311;-72
2022/09/08 20:33:53;;;;;;;0.20;0.20;;;;;;;-145.16;100.00;76938.02;647067;217;32317;-72
2022/09/08 20:39:35;;;;;;;0.15;0.15;;;;;;;-145.16;100.00;76918.89;645188;217;54039;-72
2022/09/08 20:45:23;;;;;;;0.10;0.10;;;;;;;-145.16;100.00;76912.85;653700;217;33323;-72
2022/09/08 20:51:07;;;;;;;1.83;1.12;;;;;;;-145.16;100.00;76914.87;653683;217;43089;-72
2022/09/08 20:56:50;;;;;;;0.20;0.20;;;;;;;-145.16;100.00;76895.74;645199;217;34325;-72
2022/09/08 21:02:33;;;;;;;0.40;0.40;;;;;;;-145.16;100.00;76923.92;645141;218;35280;-72
2022/09/08 21:08:17;;;;;;;0.50;0.50;;;;;;;-145.16;100.00;77012.51;645076;217;32346;-72
2022/09/08 21:14:00;;;;;;;0.63;0.63;;;;;;;-145.16;100.00;77004.45;645157;217;34309;-71
2022/09/08 21:19:41;;;;;;;0.50;0.43;;;;;;;-145.16;100.00;76981.30;643047;217;32513;-71
2022/09/08 21:25:24;;;;;;;0.40;0.40;;;;;;;-145.16;100.00;76908.83;645028;218;32351;-71
2022/09/08 21:31:10;;;;;;;0.30;0.30;;;;;;;-145.16;100.00;76864.54;632458;217;33504;-71
2022/09/08 21:36:51;;;;;;;0.10;0.10;;;;;;;-145.16;100.00;76835.34;643359;216;32806;-70
2022/09/08 21:42:33;;;;;;;1.10;1.00;;;;;;;-145.16;100.00;76818.23;645104;217;34568;-71
2022/09/08 21:48:16;;;;;;;0.00;0.00;;;;;;;-145.16;100.00;76816.22;645027;217;32416;-70
2022/09/08 21:54:01;;;;;;;0.20;0.20;;;;;;;-145.16;100.00;76805.15;645184;217;32395;-71
2022/09/08 21:59:42;;;;;;;0.10;0.10;;;;;;;-145.16;100.00;76807.16;653694;217;35308;-70
2022/09/08 22:05:26;;;;;;;0.17;0.17;;;;;;;-145.16;100.00;76817.23;653668;217;32360;-70
2022/09/08 22:11:15;;;;;;;0.20;0.20;;;;;;;-145.16;100.00;76801.13;645203;218;32314;-71
2022/09/08 22:17:07;;;;;;;0.10;0.10;;;;;;;-145.16;100.00;76827.30;645229;217;34611;-71
2022/09/08 22:22:48;;;;;;;0.10;0.10;;;;;;;-145.16;100.00;76811.19;645181;217;32393;-70
2022/09/08 22:28:44;;;;;;;0.10;0.10;;;;;;;-145.16;100.00;76842.39;645248;217;34322;-71
2022/09/08 22:34:31;;;;;;;0.10;0.10;;;;;;;-145.16;100.00;76839.38;645173;218;32356;-70
2022/09/08 22:40:13;;;;;;;0.10;0.10;;;;;;;-145.16;100.00;76850.45;641062;217;32514;-71
2022/09/08 22:45:55;;;;;;;0.10;0.10;;;;;;;-145.16;100.00;76868.56;653684;217;32371;-71
2022/09/08 22:51:38;;;;;;;0.20;0.20;;;;;;;-145.16;100.00;76894.73;645181;218;32321;-71
2022/09/08 22:57:20;;;;;;;0.20;0.20;;;;;;;-145.16;100.00;76879.64;645032;218;53739;-71
2022/09/08 23:03:02;;;;;;;0.10;0.10;;;;;;;-145.16;100.00;76883.66;645133;217;33341;-71
2022/09/08 23:08:46;;;;;;;0.10;0.10;;;;;;;-145.16;100.00;76880.64;643911;217;43085;-70
2022/09/08 23:14:30;;;;;;;0.30;0.30;;;;;;;-145.16;100.00;76924.94;653685;218;34305;-70
2022/09/08 23:20:12;;;;;;;0.27;0.27;;;;;;;-145.16;100.00;76948.08;653658;217;34273;-70
2022/09/08 23:25:56;;;;;;;0.20;0.20;;;;;;;-145.16;100.00;76944.06;645186;217;33292;-70
2022/09/08 23:31:55;;;;;;;1.10;0.40;;;;;;;-145.16;100.00;76909.83;645232;217;35255;-70
2022/09/08 23:37:41;;;;;;;0.10;0.10;;;;;;;-145.16;100.00;76869.57;645228;217;34586;-70
2022/09/08 23:43:27;;;;;;;0.20;0.20;;;;;;;-145.16;100.00;76868.56;653698;218;32345;-70
2022/09/08 23:49:12;;;;;;;0.10;0.10;;;;;;;-145.16;100.00;76852.46;645093;217;34273;-69
2022/09/08 23:54:53;;;;;;;0.10;0.10;;;;;;;-145.16;100.00;76906.81;645177;217;32356;-70
